sensor_id;sensor_type;location;lat;lon;timestamp;P1;durP1;ratioP1;P2;durP2;ratioP2
27543;SDS011;17996;51.056;3.656;2023-07-09T00:01:04;25.83;;;16.27;;
27543;SDS011;17996;51.056;3.656;2023-07-09T00:03:30;30.77;;;15.77;;
27543;SDS011;17996;51.056;3.656;2023-07-09T00:05:56;20.40;;;14.35;;
27543;SDS011;17996;51.056;3.656;2023-07-09T00:08:28;19.92;;;15.50;;
27543;SDS011;17996;51.056;3.656;2023-07-09T00:10:56;28.75;;;18.08;;
27543;SDS011;17996;51.056;3.656;2023-07-09T00:13:23;29.27;;;22.48;;
27543;SDS011;17996;51.056;3.656;2023-07-09T00:15:50;29.98;;;20.48;;
27543;SDS011;17996;51.056;3.656;2023-07-09T00:18:16;30.25;;;22.08;;
27543;SDS011;17996;51.056;3.656;2023-07-09T00:20:42;40.50;;;24.20;;
27543;SDS011;17996;51.056;3.656;2023-07-09T00:23:11;35.78;;;23.80;;
27543;SDS011;17996;51.056;3.656;2023-07-09T00:25:40;34.47;;;23.08;;
27543;SDS011;17996;51.056;3.656;2023-07-09T00:28:17;35.55;;;25.55;;
27543;SDS011;17996;51.056;3.656;2023-07-09T00:30:47;35.75;;;23.38;;
27543;SDS011;17996;51.056;3.656;2023-07-09T00:33:14;42.33;;;24.92;;
27543;SDS011;17996;51.056;3.656;2023-07-09T00:35:50;38.90;;;25.08;;
27543;SDS011;17996;51.056;3.656;2023-07-09T00:38:17;37.53;;;25.63;;
27543;SDS011;17996;51.056;3.656;2023-07-09T00:40:47;44.83;;;25.67;;
27543;SDS011;17996;51.056;3.656;2023-07-09T00:43:21;41.25;;;27.58;;
27543;SDS011;17996;51.056;3.656;2023-07-09T00:46:07;39.88;;;26.40;;
27543;SDS011;17996;51.056;3.656;2023-07-09T00:49:02;41.20;;;28.30;;
27543;SDS011;17996;51.056;3.656;2023-07-09T00:51:33;39.85;;;28.30;;
27543;SDS011;17996;51.056;3.656;2023-07-09T00:54:08;41.55;;;29.15;;
27543;SDS011;17996;51.056;3.656;2023-07-09T00:56:44;54.80;;;34.42;;
27543;SDS011;17996;51.056;3.656;2023-07-09T00:59:16;44.88;;;33.90;;
27543;SDS011;17996;51.056;3.656;2023-07-09T01:01:45;54.72;;;37.25;;
27543;SDS011;17996;51.056;3.656;2023-07-09T01:04:15;48.42;;;38.88;;
27543;SDS011;17996;51.056;3.656;2023-07-09T01:06:47;60.33;;;43.75;;
27543;SDS011;17996;51.056;3.656;2023-07-09T01:09:15;60.00;;;44.25;;
27543;SDS011;17996;51.056;3.656;2023-07-09T01:11:42;49.83;;;40.63;;
27543;SDS011;17996;51.056;3.656;2023-07-09T01:14:08;64.43;;;48.65;;
27543;SDS011;17996;51.056;3.656;2023-07-09T01:16:39;60.58;;;47.22;;
27543;SDS011;17996;51.056;3.656;2023-07-09T01:19:08;73.30;;;50.03;;
27543;SDS011;17996;51.056;3.656;2023-07-09T01:21:34;66.50;;;50.42;;
27543;SDS011;17996;51.056;3.656;2023-07-09T01:24:16;72.00;;;51.65;;
27543;SDS011;17996;51.056;3.656;2023-07-09T01:27:16;68.28;;;51.35;;
27543;SDS011;17996;51.056;3.656;2023-07-09T01:29:43;67.70;;;55.22;;
27543;SDS011;17996;51.056;3.656;2023-07-09T01:32:14;70.82;;;56.20;;
27543;SDS011;17996;51.056;3.656;2023-07-09T01:34:43;58.03;;;49.30;;
27543;SDS011;17996;51.056;3.656;2023-07-09T01:37:14;66.25;;;51.80;;
27543;SDS011;17996;51.056;3.656;2023-07-09T01:39:41;70.22;;;53.25;;
27543;SDS011;17996;51.056;3.656;2023-07-09T01:42:07;59.50;;;50.58;;
27543;SDS011;17996;51.056;3.656;2023-07-09T01:44:33;66.82;;;54.40;;
27543;SDS011;17996;51.056;3.656;2023-07-09T01:47:03;60.92;;;52.45;;
27543;SDS011;17996;51.056;3.656;2023-07-09T01:49:30;70.60;;;54.90;;
27543;SDS011;17996;51.056;3.656;2023-07-09T01:51:58;64.78;;;55.90;;
27543;SDS011;17996;51.056;3.656;2023-07-09T01:54:27;70.00;;;54.88;;
27543;SDS011;17996;51.056;3.656;2023-07-09T01:57:12;73.22;;;59.67;;
27543;SDS011;17996;51.056;3.656;2023-07-09T01:59:57;79.05;;;64.47;;
27543;SDS011;17996;51.056;3.656;2023-07-09T02:02:22;84.00;;;67.75;;
27543;SDS011;17996;51.056;3.656;2023-07-09T02:04:49;85.50;;;72.25;;
27543;SDS011;17996;51.056;3.656;2023-07-09T02:07:17;76.93;;;68.53;;
27543;SDS011;17996;51.056;3.656;2023-07-09T02:09:44;85.32;;;73.32;;
27543;SDS011;17996;51.056;3.656;2023-07-09T02:12:10;92.85;;;82.53;;
27543;SDS011;17996;51.056;3.656;2023-07-09T02:14:37;93.53;;;83.10;;
27543;SDS011;17996;51.056;3.656;2023-07-09T02:17:03;97.25;;;84.80;;
27543;SDS011;17996;51.056;3.656;2023-07-09T02:19:29;106.93;;;91.40;;
27543;SDS011;17996;51.056;3.656;2023-07-09T02:21:55;115.63;;;97.75;;
27543;SDS011;17996;51.056;3.656;2023-07-09T02:24:21;112.25;;;95.53;;
27543;SDS011;17996;51.056;3.656;2023-07-09T02:26:50;113.97;;;95.53;;
27543;SDS011;17996;51.056;3.656;2023-07-09T02:29:16;105.30;;;92.22;;
27543;SDS011;17996;51.056;3.656;2023-07-09T02:31:43;107.40;;;92.85;;
27543;SDS011;17996;51.056;3.656;2023-07-09T02:34:09;103.63;;;91.28;;
27543;SDS011;17996;51.056;3.656;2023-07-09T02:36:35;99.88;;;88.57;;
27543;SDS011;17996;51.056;3.656;2023-07-09T02:39:00;112.28;;;97.00;;
27543;SDS011;17996;51.056;3.656;2023-07-09T02:41:26;106.47;;;93.95;;
27543;SDS011;17996;51.056;3.656;2023-07-09T02:43:52;108.78;;;94.75;;
27543;SDS011;17996;51.056;3.656;2023-07-09T02:46:17;111.05;;;97.97;;
27543;SDS011;17996;51.056;3.656;2023-07-09T02:48:43;109.85;;;98.07;;
27543;SDS011;17996;51.056;3.656;2023-07-09T02:51:09;116.47;;;97.45;;
27543;SDS011;17996;51.056;3.656;2023-07-09T02:53:34;114.45;;;99.40;;
27543;SDS011;17996;51.056;3.656;2023-07-09T02:56:00;108.15;;;96.18;;
27543;SDS011;17996;51.056;3.656;2023-07-09T02:58:26;116.63;;;103.43;;
27543;SDS011;17996;51.056;3.656;2023-07-09T03:00:51;112.93;;;98.10;;
27543;SDS011;17996;51.056;3.656;2023-07-09T03:03:20;115.60;;;98.80;;
27543;SDS011;17996;51.056;3.656;2023-07-09T03:05:47;114.07;;;101.55;;
27543;SDS011;17996;51.056;3.656;2023-07-09T03:08:13;114.30;;;100.45;;
27543;SDS011;17996;51.056;3.656;2023-07-09T03:10:40;114.88;;;102.55;;
27543;SDS011;17996;51.056;3.656;2023-07-09T03:13:05;117.07;;;102.07;;
27543;SDS011;17996;51.056;3.656;2023-07-09T03:15:31;123.40;;;103.97;;
27543;SDS011;17996;51.056;3.656;2023-07-09T03:17:57;119.53;;;104.40;;
27543;SDS011;17996;51.056;3.656;2023-07-09T03:20:23;118.47;;;104.75;;
27543;SDS011;17996;51.056;3.656;2023-07-09T03:22:48;123.47;;;104.18;;
27543;SDS011;17996;51.056;3.656;2023-07-09T03:25:14;123.25;;;109.68;;
27543;SDS011;17996;51.056;3.656;2023-07-09T03:27:40;122.75;;;106.88;;
27543;SDS011;17996;51.056;3.656;2023-07-09T03:30:06;120.28;;;107.18;;
27543;SDS011;17996;51.056;3.656;2023-07-09T03:32:31;121.55;;;108.45;;
27543;SDS011;17996;51.056;3.656;2023-07-09T03:34:57;124.68;;;109.07;;
27543;SDS011;17996;51.056;3.656;2023-07-09T03:37:23;125.32;;;110.88;;
27543;SDS011;17996;51.056;3.656;2023-07-09T03:39:48;131.98;;;113.75;;
27543;SDS011;17996;51.056;3.656;2023-07-09T03:42:14;128.20;;;114.07;;
27543;SDS011;17996;51.056;3.656;2023-07-09T03:44:39;129.90;;;110.55;;
27543;SDS011;17996;51.056;3.656;2023-07-09T03:47:06;131.85;;;110.43;;
27543;SDS011;17996;51.056;3.656;2023-07-09T03:49:32;123.05;;;105.28;;
27543;SDS011;17996;51.056;3.656;2023-07-09T03:51:58;128.05;;;113.63;;
27543;SDS011;17996;51.056;3.656;2023-07-09T03:54:24;127.40;;;110.35;;
27543;SDS011;17996;51.056;3.656;2023-07-09T03:56:50;126.18;;;110.55;;
27543;SDS011;17996;51.056;3.656;2023-07-09T03:59:15;122.35;;;108.72;;
27543;SDS011;17996;51.056;3.656;2023-07-09T04:01:41;126.80;;;109.15;;
27543;SDS011;17996;51.056;3.656;2023-07-09T04:06:35;120.95;;;104.47;;
27543;SDS011;17996;51.056;3.656;2023-07-09T04:09:01;125.63;;;106.50;;
27543;SDS011;17996;51.056;3.656;2023-07-09T04:11:27;121.22;;;100.43;;
27543;SDS011;17996;51.056;3.656;2023-07-09T04:13:52;132.43;;;111.35;;
27543;SDS011;17996;51.056;3.656;2023-07-09T04:16:18;130.80;;;109.95;;
27543;SDS011;17996;51.056;3.656;2023-07-09T04:18:43;127.43;;;108.93;;
27543;SDS011;17996;51.056;3.656;2023-07-09T04:21:09;135.13;;;112.47;;
27543;SDS011;17996;51.056;3.656;2023-07-09T04:23:35;126.63;;;108.65;;
27543;SDS011;17996;51.056;3.656;2023-07-09T04:26:00;134.18;;;109.82;;
27543;SDS011;17996;51.056;3.656;2023-07-09T04:28:28;134.32;;;109.72;;
27543;SDS011;17996;51.056;3.656;2023-07-09T04:30:55;124.35;;;104.47;;
27543;SDS011;17996;51.056;3.656;2023-07-09T04:33:21;125.50;;;103.70;;
27543;SDS011;17996;51.056;3.656;2023-07-09T04:35:47;123.90;;;105.22;;
27543;SDS011;17996;51.056;3.656;2023-07-09T04:38:14;129.88;;;107.65;;
27543;SDS011;17996;51.056;3.656;2023-07-09T04:40:40;124.93;;;103.55;;
27543;SDS011;17996;51.056;3.656;2023-07-09T04:43:05;132.73;;;105.10;;
27543;SDS011;17996;51.056;3.656;2023-07-09T04:45:31;116.88;;;102.20;;
27543;SDS011;17996;51.056;3.656;2023-07-09T04:47:57;123.00;;;103.15;;
27543;SDS011;17996;51.056;3.656;2023-07-09T04:50:22;118.45;;;98.32;;
27543;SDS011;17996;51.056;3.656;2023-07-09T04:52:48;128.65;;;104.90;;
27543;SDS011;17996;51.056;3.656;2023-07-09T04:55:15;127.93;;;103.22;;
27543;SDS011;17996;51.056;3.656;2023-07-09T04:57:44;130.85;;;105.10;;
27543;SDS011;17996;51.056;3.656;2023-07-09T05:00:10;128.48;;;104.55;;
27543;SDS011;17996;51.056;3.656;2023-07-09T05:02:36;121.00;;;102.72;;
27543;SDS011;17996;51.056;3.656;2023-07-09T05:05:02;123.45;;;103.28;;
27543;SDS011;17996;51.056;3.656;2023-07-09T05:07:28;112.18;;;97.70;;
27543;SDS011;17996;51.056;3.656;2023-07-09T05:09:53;121.90;;;102.38;;
27543;SDS011;17996;51.056;3.656;2023-07-09T05:12:19;123.80;;;102.40;;
27543;SDS011;17996;51.056;3.656;2023-07-09T05:14:46;123.47;;;98.30;;
27543;SDS011;17996;51.056;3.656;2023-07-09T05:17:12;111.90;;;93.50;;
27543;SDS011;17996;51.056;3.656;2023-07-09T05:19:38;129.90;;;102.40;;
27543;SDS011;17996;51.056;3.656;2023-07-09T05:22:04;129.90;;;99.55;;
27543;SDS011;17996;51.056;3.656;2023-07-09T05:24:30;117.43;;;97.55;;
27543;SDS011;17996;51.056;3.656;2023-07-09T05:26:55;120.43;;;99.88;;
27543;SDS011;17996;51.056;3.656;2023-07-09T05:29:21;117.60;;;96.75;;
27543;SDS011;17996;51.056;3.656;2023-07-09T05:31:48;120.85;;;99.53;;
27543;SDS011;17996;51.056;3.656;2023-07-09T05:34:13;110.35;;;95.15;;
27543;SDS011;17996;51.056;3.656;2023-07-09T05:36:39;111.68;;;93.50;;
27543;SDS011;17996;51.056;3.656;2023-07-09T05:39:05;114.18;;;89.90;;
27543;SDS011;17996;51.056;3.656;2023-07-09T05:41:31;106.80;;;86.72;;
27543;SDS011;17996;51.056;3.656;2023-07-09T05:43:57;102.47;;;82.70;;
27543;SDS011;17996;51.056;3.656;2023-07-09T05:46:22;97.03;;;74.53;;
27543;SDS011;17996;51.056;3.656;2023-07-09T05:48:48;89.07;;;72.57;;
27543;SDS011;17996;51.056;3.656;2023-07-09T05:51:14;94.00;;;69.63;;
27543;SDS011;17996;51.056;3.656;2023-07-09T05:53:40;86.10;;;68.35;;
27543;SDS011;17996;51.056;3.656;2023-07-09T05:56:06;79.80;;;66.85;;
27543;SDS011;17996;51.056;3.656;2023-07-09T05:58:32;80.88;;;61.35;;
27543;SDS011;17996;51.056;3.656;2023-07-09T06:00:58;72.75;;;57.60;;
27543;SDS011;17996;51.056;3.656;2023-07-09T06:03:24;69.95;;;59.33;;
27543;SDS011;17996;51.056;3.656;2023-07-09T06:05:52;68.50;;;53.20;;
27543;SDS011;17996;51.056;3.656;2023-07-09T06:08:18;65.18;;;53.25;;
27543;SDS011;17996;51.056;3.656;2023-07-09T06:10:55;67.25;;;50.40;;
27543;SDS011;17996;51.056;3.656;2023-07-09T06:13:23;46.97;;;40.58;;
27543;SDS011;17996;51.056;3.656;2023-07-09T06:15:50;60.80;;;41.70;;
27543;SDS011;17996;51.056;3.656;2023-07-09T06:18:17;59.50;;;46.80;;
27543;SDS011;17996;51.056;3.656;2023-07-09T06:20:47;51.00;;;42.47;;
27543;SDS011;17996;51.056;3.656;2023-07-09T06:23:13;52.97;;;43.85;;
27543;SDS011;17996;51.056;3.656;2023-07-09T06:25:39;56.13;;;44.28;;
27543;SDS011;17996;51.056;3.656;2023-07-09T06:28:05;63.00;;;45.03;;
27543;SDS011;17996;51.056;3.656;2023-07-09T06:30:31;52.53;;;41.67;;
27543;SDS011;17996;51.056;3.656;2023-07-09T06:32:56;53.95;;;39.50;;
27543;SDS011;17996;51.056;3.656;2023-07-09T06:35:22;50.70;;;35.97;;
27543;SDS011;17996;51.056;3.656;2023-07-09T06:37:48;46.78;;;33.50;;
27543;SDS011;17996;51.056;3.656;2023-07-09T06:40:13;43.47;;;32.30;;
27543;SDS011;17996;51.056;3.656;2023-07-09T06:42:39;42.42;;;29.88;;
27543;SDS011;17996;51.056;3.656;2023-07-09T06:45:05;40.65;;;27.88;;
27543;SDS011;17996;51.056;3.656;2023-07-09T06:47:31;36.03;;;27.50;;
27543;SDS011;17996;51.056;3.656;2023-07-09T06:49:57;31.65;;;24.52;;
27543;SDS011;17996;51.056;3.656;2023-07-09T06:52:22;31.30;;;22.52;;
27543;SDS011;17996;51.056;3.656;2023-07-09T06:54:48;33.47;;;21.80;;
27543;SDS011;17996;51.056;3.656;2023-07-09T06:57:14;29.00;;;21.13;;
27543;SDS011;17996;51.056;3.656;2023-07-09T06:59:40;26.00;;;20.27;;
27543;SDS011;17996;51.056;3.656;2023-07-09T07:02:05;26.25;;;18.40;;
27543;SDS011;17996;51.056;3.656;2023-07-09T07:04:31;26.00;;;18.63;;
27543;SDS011;17996;51.056;3.656;2023-07-09T07:06:57;30.25;;;19.20;;
27543;SDS011;17996;51.056;3.656;2023-07-09T07:09:23;29.63;;;17.50;;
27543;SDS011;17996;51.056;3.656;2023-07-09T07:11:49;23.25;;;17.48;;
27543;SDS011;17996;51.056;3.656;2023-07-09T07:14:15;28.55;;;16.23;;
27543;SDS011;17996;51.056;3.656;2023-07-09T07:16:40;27.75;;;17.42;;
27543;SDS011;17996;51.056;3.656;2023-07-09T07:19:06;20.63;;;16.88;;
27543;SDS011;17996;51.056;3.656;2023-07-09T07:21:32;25.50;;;17.98;;
27543;SDS011;17996;51.056;3.656;2023-07-09T07:23:58;25.90;;;18.30;;
27543;SDS011;17996;51.056;3.656;2023-07-09T07:26:23;26.45;;;17.63;;
27543;SDS011;17996;51.056;3.656;2023-07-09T07:28:49;25.10;;;17.17;;
27543;SDS011;17996;51.056;3.656;2023-07-09T07:31:15;30.38;;;18.85;;
27543;SDS011;17996;51.056;3.656;2023-07-09T07:33:42;25.52;;;16.73;;
27543;SDS011;17996;51.056;3.656;2023-07-09T07:36:08;24.52;;;14.93;;
27543;SDS011;17996;51.056;3.656;2023-07-09T07:38:34;23.48;;;14.75;;
27543;SDS011;17996;51.056;3.656;2023-07-09T07:41:00;21.10;;;14.25;;
27543;SDS011;17996;51.056;3.656;2023-07-09T07:43:26;23.50;;;12.90;;
27543;SDS011;17996;51.056;3.656;2023-07-09T07:45:52;18.48;;;12.20;;
27543;SDS011;17996;51.056;3.656;2023-07-09T07:48:18;17.17;;;12.27;;
27543;SDS011;17996;51.056;3.656;2023-07-09T07:50:45;21.83;;;11.38;;
27543;SDS011;17996;51.056;3.656;2023-07-09T07:53:13;23.70;;;10.95;;
27543;SDS011;17996;51.056;3.656;2023-07-09T07:55:42;17.48;;;11.07;;
27543;SDS011;17996;51.056;3.656;2023-07-09T07:58:11;18.40;;;9.90;;
27543;SDS011;17996;51.056;3.656;2023-07-09T08:00:38;18.25;;;9.48;;
27543;SDS011;17996;51.056;3.656;2023-07-09T08:03:04;18.35;;;10.02;;
27543;SDS011;17996;51.056;3.656;2023-07-09T08:05:29;19.65;;;9.82;;
27543;SDS011;17996;51.056;3.656;2023-07-09T08:07:55;20.80;;;10.77;;
27543;SDS011;17996;51.056;3.656;2023-07-09T08:10:21;15.55;;;9.77;;
27543;SDS011;17996;51.056;3.656;2023-07-09T08:12:47;15.32;;;9.45;;
27543;SDS011;17996;51.056;3.656;2023-07-09T08:15:13;15.45;;;8.38;;
27543;SDS011;17996;51.056;3.656;2023-07-09T08:17:38;10.73;;;7.03;;
27543;SDS011;17996;51.056;3.656;2023-07-09T08:20:04;19.58;;;8.57;;
27543;SDS011;17996;51.056;3.656;2023-07-09T08:22:30;12.05;;;7.72;;
27543;SDS011;17996;51.056;3.656;2023-07-09T08:24:56;16.65;;;7.38;;
27543;SDS011;17996;51.056;3.656;2023-07-09T08:27:22;8.55;;;5.60;;
27543;SDS011;17996;51.056;3.656;2023-07-09T08:29:47;14.02;;;6.78;;
27543;SDS011;17996;51.056;3.656;2023-07-09T08:32:13;13.88;;;6.00;;
27543;SDS011;17996;51.056;3.656;2023-07-09T08:34:40;14.93;;;6.40;;
27543;SDS011;17996;51.056;3.656;2023-07-09T08:37:07;10.32;;;5.72;;
27543;SDS011;17996;51.056;3.656;2023-07-09T08:39:33;13.82;;;6.68;;
27543;SDS011;17996;51.056;3.656;2023-07-09T08:42:02;13.13;;;6.10;;
27543;SDS011;17996;51.056;3.656;2023-07-09T08:49:43;8.75;;;5.88;;
27543;SDS011;17996;51.056;3.656;2023-07-09T08:52:17;13.38;;;6.00;;
27543;SDS011;17996;51.056;3.656;2023-07-09T08:54:47;12.85;;;6.18;;
27543;SDS011;17996;51.056;3.656;2023-07-09T08:57:23;20.55;;;6.47;;
27543;SDS011;17996;51.056;3.656;2023-07-09T09:00:41;10.13;;;6.32;;
27543;SDS011;17996;51.056;3.656;2023-07-09T09:02:40;11.90;;;6.35;;
27543;SDS011;17996;51.056;3.656;2023-07-09T09:05:15;11.38;;;5.40;;
27543;SDS011;17996;51.056;3.656;2023-07-09T09:07:44;10.40;;;5.18;;
27543;SDS011;17996;51.056;3.656;2023-07-09T09:10:17;13.65;;;6.00;;
27543;SDS011;17996;51.056;3.656;2023-07-09T09:12:53;11.88;;;5.78;;
27543;SDS011;17996;51.056;3.656;2023-07-09T09:15:35;11.82;;;5.65;;
27543;SDS011;17996;51.056;3.656;2023-07-09T09:18:46;14.30;;;5.05;;
27543;SDS011;17996;51.056;3.656;2023-07-09T09:21:40;7.30;;;5.35;;
27543;SDS011;17996;51.056;3.656;2023-07-09T09:23:48;13.25;;;5.30;;
27543;SDS011;17996;51.056;3.656;2023-07-09T09:26:37;9.80;;;5.28;;
27543;SDS011;17996;51.056;3.656;2023-07-09T09:29:13;9.15;;;5.05;;
27543;SDS011;17996;51.056;3.656;2023-07-09T09:31:40;12.73;;;6.05;;
27543;SDS011;17996;51.056;3.656;2023-07-09T09:34:18;9.50;;;4.97;;
27543;SDS011;17996;51.056;3.656;2023-07-09T09:36:46;12.07;;;5.75;;
27543;SDS011;17996;51.056;3.656;2023-07-09T09:39:11;10.27;;;5.38;;
27543;SDS011;17996;51.056;3.656;2023-07-09T09:41:37;12.73;;;5.35;;
27543;SDS011;17996;51.056;3.656;2023-07-09T09:44:03;9.40;;;4.88;;
27543;SDS011;17996;51.056;3.656;2023-07-09T09:46:31;9.07;;;5.50;;
27543;SDS011;17996;51.056;3.656;2023-07-09T09:49:01;9.18;;;5.20;;
27543;SDS011;17996;51.056;3.656;2023-07-09T09:51:28;8.35;;;5.20;;
27543;SDS011;17996;51.056;3.656;2023-07-09T09:53:58;10.05;;;5.25;;
27543;SDS011;17996;51.056;3.656;2023-07-09T09:58:53;13.73;;;5.43;;
27543;SDS011;17996;51.056;3.656;2023-07-09T10:01:21;12.05;;;4.70;;
27543;SDS011;17996;51.056;3.656;2023-07-09T10:03:56;9.68;;;5.25;;
27543;SDS011;17996;51.056;3.656;2023-07-09T10:06:27;11.77;;;5.88;;
27543;SDS011;17996;51.056;3.656;2023-07-09T10:14:58;13.60;;;5.78;;
27543;SDS011;17996;51.056;3.656;2023-07-09T10:20:49;15.27;;;5.65;;
27543;SDS011;17996;51.056;3.656;2023-07-09T10:24:05;12.05;;;5.43;;
27543;SDS011;17996;51.056;3.656;2023-07-09T10:31:33;11.82;;;5.18;;
27543;SDS011;17996;51.056;3.656;2023-07-09T10:39:37;13.55;;;5.13;;
27543;SDS011;17996;51.056;3.656;2023-07-09T10:42:08;11.23;;;5.00;;
27543;SDS011;17996;51.056;3.656;2023-07-09T10:44:41;9.68;;;4.93;;
27543;SDS011;17996;51.056;3.656;2023-07-09T10:47:28;12.85;;;4.82;;
27543;SDS011;17996;51.056;3.656;2023-07-09T10:50:03;15.23;;;5.72;;
27543;SDS011;17996;51.056;3.656;2023-07-09T10:52:36;14.73;;;5.60;;
27543;SDS011;17996;51.056;3.656;2023-07-09T10:55:14;14.73;;;5.65;;
27543;SDS011;17996;51.056;3.656;2023-07-09T10:57:52;16.60;;;6.00;;
27543;SDS011;17996;51.056;3.656;2023-07-09T11:00:33;13.35;;;7.00;;
27543;SDS011;17996;51.056;3.656;2023-07-09T11:03:04;18.30;;;6.65;;
27543;SDS011;17996;51.056;3.656;2023-07-09T11:05:38;15.75;;;7.05;;
27543;SDS011;17996;51.056;3.656;2023-07-09T11:08:06;20.25;;;7.43;;
27543;SDS011;17996;51.056;3.656;2023-07-09T11:10:39;16.55;;;7.35;;
27543;SDS011;17996;51.056;3.656;2023-07-09T11:13:12;25.13;;;9.73;;
27543;SDS011;17996;51.056;3.656;2023-07-09T11:15:42;21.67;;;11.55;;
27543;SDS011;17996;51.056;3.656;2023-07-09T11:18:16;19.83;;;10.80;;
27543;SDS011;17996;51.056;3.656;2023-07-09T11:20:46;19.17;;;11.50;;
27543;SDS011;17996;51.056;3.656;2023-07-09T11:23:22;26.80;;;13.55;;
27543;SDS011;17996;51.056;3.656;2023-07-09T11:26:00;24.50;;;14.80;;
27543;SDS011;17996;51.056;3.656;2023-07-09T11:28:46;25.13;;;13.60;;
27543;SDS011;17996;51.056;3.656;2023-07-09T11:31:48;22.00;;;14.38;;
27543;SDS011;17996;51.056;3.656;2023-07-09T11:39:43;23.92;;;15.13;;
27543;SDS011;17996;51.056;3.656;2023-07-09T11:45:01;24.75;;;16.42;;
27543;SDS011;17996;51.056;3.656;2023-07-09T11:50:24;24.15;;;17.27;;
27543;SDS011;17996;51.056;3.656;2023-07-09T11:58:17;32.30;;;17.63;;
27543;SDS011;17996;51.056;3.656;2023-07-09T12:00:45;30.38;;;16.58;;
27543;SDS011;17996;51.056;3.656;2023-07-09T12:03:20;25.52;;;16.60;;
27543;SDS011;17996;51.056;3.656;2023-07-09T12:05:53;22.52;;;17.02;;
27543;SDS011;17996;51.056;3.656;2023-07-09T12:08:22;22.75;;;17.02;;
27543;SDS011;17996;51.056;3.656;2023-07-09T12:10:53;24.45;;;17.50;;
27543;SDS011;17996;51.056;3.656;2023-07-09T12:13:19;27.27;;;17.25;;
27543;SDS011;17996;51.056;3.656;2023-07-09T12:15:45;24.40;;;15.10;;
27543;SDS011;17996;51.056;3.656;2023-07-09T12:18:12;17.95;;;13.73;;
27543;SDS011;17996;51.056;3.656;2023-07-09T12:20:40;21.20;;;13.65;;
27543;SDS011;17996;51.056;3.656;2023-07-09T12:25:48;19.77;;;12.02;;
27543;SDS011;17996;51.056;3.656;2023-07-09T12:28:16;21.80;;;12.80;;
27543;SDS011;17996;51.056;3.656;2023-07-09T12:30:46;34.95;;;13.80;;
27543;SDS011;17996;51.056;3.656;2023-07-09T12:33:20;22.92;;;12.57;;
27543;SDS011;17996;51.056;3.656;2023-07-09T12:35:49;23.08;;;12.48;;
27543;SDS011;17996;51.056;3.656;2023-07-09T12:38:23;22.33;;;11.75;;
27543;SDS011;17996;51.056;3.656;2023-07-09T12:40:51;19.33;;;11.27;;
27543;SDS011;17996;51.056;3.656;2023-07-09T12:43:28;16.55;;;9.25;;
27543;SDS011;17996;51.056;3.656;2023-07-09T12:48:24;16.42;;;9.45;;
27543;SDS011;17996;51.056;3.656;2023-07-09T12:50:53;17.38;;;10.73;;
27543;SDS011;17996;51.056;3.656;2023-07-09T12:53:22;19.48;;;10.73;;
27543;SDS011;17996;51.056;3.656;2023-07-09T12:55:51;22.73;;;10.38;;
27543;SDS011;17996;51.056;3.656;2023-07-09T12:58:22;18.58;;;11.85;;
27543;SDS011;17996;51.056;3.656;2023-07-09T13:00:54;23.50;;;12.85;;
27543;SDS011;17996;51.056;3.656;2023-07-09T13:03:25;19.65;;;11.32;;
27543;SDS011;17996;51.056;3.656;2023-07-09T13:05:57;20.63;;;11.40;;
27543;SDS011;17996;51.056;3.656;2023-07-09T13:08:26;16.60;;;11.07;;
27543;SDS011;17996;51.056;3.656;2023-07-09T13:10:53;27.95;;;12.13;;
27543;SDS011;17996;51.056;3.656;2023-07-09T13:13:21;19.88;;;11.93;;
27543;SDS011;17996;51.056;3.656;2023-07-09T13:15:49;21.52;;;13.10;;
27543;SDS011;17996;51.056;3.656;2023-07-09T13:18:21;22.35;;;12.90;;
27543;SDS011;17996;51.056;3.656;2023-07-09T13:20:48;17.45;;;11.57;;
27543;SDS011;17996;51.056;3.656;2023-07-09T13:23:15;25.05;;;12.35;;
27543;SDS011;17996;51.056;3.656;2023-07-09T13:25:45;19.58;;;11.38;;
27543;SDS011;17996;51.056;3.656;2023-07-09T13:28:18;21.15;;;11.23;;
27543;SDS011;17996;51.056;3.656;2023-07-09T13:30:53;29.67;;;9.88;;
27543;SDS011;17996;51.056;3.656;2023-07-09T13:33:21;14.75;;;9.80;;
27543;SDS011;17996;51.056;3.656;2023-07-09T13:35:48;19.70;;;11.10;;
27543;SDS011;17996;51.056;3.656;2023-07-09T13:38:18;19.30;;;10.00;;
27543;SDS011;17996;51.056;3.656;2023-07-09T13:40:46;16.02;;;10.35;;
27543;SDS011;17996;51.056;3.656;2023-07-09T13:43:32;18.20;;;10.30;;
27543;SDS011;17996;51.056;3.656;2023-07-09T13:46:00;14.85;;;9.27;;
27543;SDS011;17996;51.056;3.656;2023-07-09T13:48:28;15.57;;;8.95;;
27543;SDS011;17996;51.056;3.656;2023-07-09T13:50:55;12.93;;;9.38;;
27543;SDS011;17996;51.056;3.656;2023-07-09T13:53:23;12.20;;;8.18;;
27543;SDS011;17996;51.056;3.656;2023-07-09T13:55:51;21.50;;;10.10;;
27543;SDS011;17996;51.056;3.656;2023-07-09T13:58:18;11.27;;;8.13;;
27543;SDS011;17996;51.056;3.656;2023-07-09T14:00:46;16.73;;;9.13;;
27543;SDS011;17996;51.056;3.656;2023-07-09T14:03:23;13.55;;;9.07;;
27543;SDS011;17996;51.056;3.656;2023-07-09T14:05:52;13.82;;;7.78;;
27543;SDS011;17996;51.056;3.656;2023-07-09T14:08:18;18.38;;;9.32;;
27543;SDS011;17996;51.056;3.656;2023-07-09T14:10:45;16.17;;;9.38;;
27543;SDS011;17996;51.056;3.656;2023-07-09T14:13:12;20.38;;;9.27;;
27543;SDS011;17996;51.056;3.656;2023-07-09T14:15:40;13.93;;;7.65;;
27543;SDS011;17996;51.056;3.656;2023-07-09T14:18:13;12.32;;;7.93;;
27543;SDS011;17996;51.056;3.656;2023-07-09T14:20:42;12.98;;;8.02;;
27543;SDS011;17996;51.056;3.656;2023-07-09T14:23:12;11.07;;;7.93;;
27543;SDS011;17996;51.056;3.656;2023-07-09T14:25:40;15.13;;;8.07;;
27543;SDS011;17996;51.056;3.656;2023-07-09T14:28:10;11.50;;;7.72;;
27543;SDS011;17996;51.056;3.656;2023-07-09T14:30:38;15.45;;;8.30;;
27543;SDS011;17996;51.056;3.656;2023-07-09T14:33:04;10.77;;;7.90;;
27543;SDS011;17996;51.056;3.656;2023-07-09T14:35:33;15.48;;;8.38;;
27543;SDS011;17996;51.056;3.656;2023-07-09T14:38:01;12.35;;;7.88;;
27543;SDS011;17996;51.056;3.656;2023-07-09T14:40:29;14.38;;;8.40;;
27543;SDS011;17996;51.056;3.656;2023-07-09T14:42:54;12.30;;;7.55;;
27543;SDS011;17996;51.056;3.656;2023-07-09T14:45:24;14.32;;;8.05;;
27543;SDS011;17996;51.056;3.656;2023-07-09T14:47:51;13.85;;;7.78;;
27543;SDS011;17996;51.056;3.656;2023-07-09T14:50:18;11.57;;;7.15;;
27543;SDS011;17996;51.056;3.656;2023-07-09T14:52:45;14.32;;;7.20;;
27543;SDS011;17996;51.056;3.656;2023-07-09T14:55:15;13.57;;;6.90;;
27543;SDS011;17996;51.056;3.656;2023-07-09T14:57:43;11.82;;;6.43;;
27543;SDS011;17996;51.056;3.656;2023-07-09T15:00:16;11.25;;;6.68;;
27543;SDS011;17996;51.056;3.656;2023-07-09T15:02:43;14.93;;;6.38;;
27543;SDS011;17996;51.056;3.656;2023-07-09T15:07:46;12.07;;;6.90;;
27543;SDS011;17996;51.056;3.656;2023-07-09T15:10:16;8.10;;;5.38;;
27543;SDS011;17996;51.056;3.656;2023-07-09T15:12:50;11.82;;;5.75;;
27543;SDS011;17996;51.056;3.656;2023-07-09T15:15:19;9.43;;;5.43;;
27543;SDS011;17996;51.056;3.656;2023-07-09T15:17:56;8.32;;;5.10;;
27543;SDS011;17996;51.056;3.656;2023-07-09T15:20:24;9.85;;;4.60;;
27543;SDS011;17996;51.056;3.656;2023-07-09T15:22:53;8.75;;;4.70;;
27543;SDS011;17996;51.056;3.656;2023-07-09T15:25:22;10.13;;;4.03;;